Time;durP1;ratioP1;P1;durP2;ratioP2;P2;SDS_P1;SDS_P2;PMS_P1;PMS_P2;Temp;Humidity;BMP_temperature;BMP_pressure;BME280_temperature;BME280_humidity;BME280_pressure;Samples;Min_cycle;Max_cycle;Signal;HPM_P1;HPM_P2
2022/11/07 00:03:18;;;;;;;2.43;0.80;;;;;;;8.20;58.92;99818.81;10507252;28;20615;-81
2022/11/07 00:08:40;;;;;;;4.17;0.77;;;;;;;8.07;60.38;99798.19;10531557;28;20198;-81
2022/11/07 00:14:03;;;;;;;1.63;0.50;;;;;;;8.29;59.39;99798.00;10541114;28;20220;-81
2022/11/07 00:19:25;;;;;;;0.80;0.70;;;;;;;8.25;59.28;99813.03;10531685;28;20644;-82
2022/11/07 00:24:47;;;;;;;1.33;0.50;;;;;;;8.12;58.96;99823.28;10516997;28;20206;-81
2022/11/07 00:30:10;;;;;;;2.07;1.00;;;;;;;8.59;58.46;99823.38;10518705;28;20186;-81
2022/11/07 00:35:33;;;;;;;1.23;0.60;;;;;;;8.34;59.27;99825.91;10517432;28;20235;-81
2022/11/07 00:41:01;;;;;;;4.30;1.20;;;;;;;8.33;59.54;99837.47;10517905;28;20211;-81
2022/11/07 00:46:24;;;;;;;1.27;0.80;;;;;;;8.39;59.10;99842.56;10511462;28;20668;-81
2022/11/07 00:51:46;;;;;;;0.90;0.50;;;;;;;8.52;58.10;99856.75;10484781;28;20187;-82
2022/11/07 00:57:08;;;;;;;2.20;0.50;;;;;;;8.86;58.08;99851.09;10486874;28;20566;-82
2022/11/07 01:02:30;;;;;;;2.00;0.70;;;;;;;8.52;59.30;99856.75;10526975;28;20244;-81
2022/11/07 01:07:52;;;;;;;0.73;0.70;;;;;;;8.54;59.31;99854.44;10547249;28;20224;-81
2022/11/07 01:13:15;;;;;;;2.70;0.60;;;;;;;8.13;60.42;99860.59;10533211;28;20244;-80
2022/11/07 01:18:37;;;;;;;2.73;1.03;;;;;;;8.13;60.58;99857.78;10533148;28;20240;-82
2022/11/07 01:24:00;;;;;;;1.10;0.50;;;;;;;8.32;59.91;99864.72;10532562;28;20699;-80
2022/11/07 01:29:22;;;;;;;2.43;0.50;;;;;;;8.09;60.69;99871.69;10546571;28;20254;-80
2022/11/07 01:34:44;;;;;;;1.37;0.50;;;;;;;8.35;60.64;99861.25;10547522;28;20276;-82
2022/11/07 01:40:07;;;;;;;1.23;0.50;;;;;;;8.27;60.02;99859.25;10546217;28;20267;-80
2022/11/07 01:45:29;;;;;;;2.57;0.50;;;;;;;7.98;61.37;99859.09;10546491;28;20183;-80
2022/11/07 01:50:51;;;;;;;1.20;0.57;;;;;;;8.11;61.72;99857.28;10546362;28;20187;-80
2022/11/07 01:56:16;;;;;;;0.70;0.30;;;;;;;8.14;61.15;99856.63;10531619;28;20199;-80
2022/11/07 02:01:38;;;;;;;1.77;0.50;;;;;;;7.76;62.04;99856.44;10545622;28;20247;-80
2022/11/07 02:07:21;;;;;;;2.63;0.90;;;;;;;8.33;60.95;99855.13;10545569;28;20186;-81
2022/11/07 02:12:43;;;;;;;1.33;0.87;;;;;;;7.92;61.88;99855.66;10545299;28;20186;-81
2022/11/07 02:18:05;;;;;;;1.87;0.37;;;;;;;8.32;60.75;99847.88;10545962;28;20239;-80
2022/11/07 02:24:10;;;;;;;2.67;0.40;;;;;;;7.95;61.92;99860.59;10544835;28;20256;-80
2022/11/07 02:29:34;;;;;;;1.50;0.30;;;;;;;8.12;61.14;99859.75;10488306;28;20618;-80
2022/11/07 02:35:04;;;;;;;2.07;0.77;;;;;;;7.76;62.63;99856.44;10530415;28;20264;-80
2022/11/07 02:40:27;;;;;;;1.17;0.50;;;;;;;7.87;63.43;99857.78;10544066;28;20228;-80
2022/11/07 02:45:50;;;;;;;1.07;0.50;;;;;;;7.75;63.31;99843.56;10544131;28;20186;-82
2022/11/07 02:51:12;;;;;;;1.47;0.40;;;;;;;8.05;63.19;99859.44;10543849;28;20183;-80
2022/11/07 02:56:34;;;;;;;2.40;0.50;;;;;;;8.12;62.14;99850.50;10529046;28;20198;-80
2022/11/07 03:01:56;;;;;;;2.03;0.40;;;;;;;8.01;62.55;99858.44;10543315;28;20252;-80
2022/11/07 03:07:18;;;;;;;2.43;0.70;;;;;;;7.99;62.14;99863.56;10544043;28;20239;-80
2022/11/07 03:12:41;;;;;;;3.03;0.60;;;;;;;8.28;61.00;99863.72;10531658;28;20195;-80
2022/11/07 03:18:03;;;;;;;2.43;0.73;;;;;;;8.11;61.14;99863.72;10542919;28;20465;-82
2022/11/07 03:23:25;;;;;;;1.10;0.60;;;;;;;8.11;61.23;99868.50;10542432;28;20206;-80
2022/11/07 03:28:47;;;;;;;1.47;0.50;;;;;;;8.80;59.43;99874.88;10543355;28;20199;-80
2022/11/07 03:34:09;;;;;;;3.33;0.70;;;;;;;8.00;61.76;99868.84;10512832;28;20281;-80
2022/11/07 03:39:31;;;;;;;4.30;0.60;;;;;;;8.14;62.12;99881.88;10500589;28;20455;-80
2022/11/07 03:44:53;;;;;;;2.87;0.97;;;;;;;8.16;61.58;99873.97;10486773;28;20217;-80
2022/11/07 03:50:19;;;;;;;4.27;0.77;;;;;;;8.23;61.24;99889.16;10500989;28;20526;-83
2022/11/07 03:55:41;;;;;;;3.87;0.70;;;;;;;8.22;60.98;99887.53;10500935;28;20585;-81
2022/11/07 04:01:04;;;;;;;2.40;0.50;;;;;;;8.57;60.21;99882.69;10500097;28;20595;-80
2022/11/07 04:06:27;;;;;;;2.23;0.60;;;;;;;8.28;60.79;99883.38;10534564;28;20198;-80
2022/11/07 04:17:29;;;;;;;3.60;0.80;;;;;;;8.66;60.13;99893.94;10542371;28;20252;-81
2022/11/07 04:22:51;;;;;;;2.90;0.50;;;;;;;8.43;60.31;99896.91;10541451;28;20236;-80
2022/11/07 04:28:16;;;;;;;4.17;1.07;;;;;;;8.18;60.81;99897.75;10541184;28;20259;-82
2022/11/07 04:33:38;;;;;;;2.33;0.73;;;;;;;8.41;60.92;99887.16;10545603;28;20219;-81
2022/11/07 04:39:00;;;;;;;4.20;1.07;;;;;;;8.22;60.77;99898.75;10549060;28;20248;-82
2022/11/07 04:44:22;;;;;;;2.97;0.70;;;;;;;8.47;59.99;99904.69;10548743;28;20198;-82
2022/11/07 04:49:44;;;;;;;3.13;0.63;;;;;;;8.33;61.56;99893.63;10534606;28;20183;-82
2022/11/07 04:55:08;;;;;;;1.93;0.83;;;;;;;8.55;59.76;99892.59;10549242;28;20229;-83
2022/11/07 05:00:30;;;;;;;2.20;0.73;;;;;;;8.13;61.72;99889.50;10547870;28;20206;-81
2022/11/07 05:05:52;;;;;;;3.90;0.97;;;;;;;8.26;60.57;99899.72;10547955;28;20190;-80
2022/11/07 05:11:14;;;;;;;4.80;1.10;;;;;;;8.33;60.95;99885.19;10547873;28;20251;-82
2022/11/07 05:16:36;;;;;;;3.70;1.03;;;;;;;8.08;62.34;99884.06;10547688;28;20487;-80
2022/11/07 05:27:39;;;;;;;1.53;0.60;;;;;;;8.20;61.35;99891.81;10547706;28;20259;-80
2022/11/07 05:33:01;;;;;;;3.40;0.90;;;;;;;8.52;60.27;99885.66;10546735;28;20244;-81
2022/11/07 05:38:23;;;;;;;5.00;1.30;;;;;;;8.51;60.23;99886.81;10546815;28;20183;-80
2022/11/07 05:43:45;;;;;;;5.90;1.90;;;;;;;7.89;61.83;99900.38;10546695;28;20228;-80
2022/11/07 05:49:08;;;;;;;2.83;1.00;;;;;;;8.40;60.47;99894.75;10532010;28;20198;-81
2022/11/07 05:54:31;;;;;;;4.23;1.00;;;;;;;8.18;61.18;99894.94;10531584;28;20195;-82
2022/11/07 05:59:53;;;;;;;3.47;0.90;;;;;;;8.28;61.14;99905.84;10545555;28;20187;-82
2022/11/07 06:05:16;;;;;;;1.73;0.77;;;;;;;8.14;61.78;99919.22;10546342;28;20191;-80
2022/11/07 06:10:40;;;;;;;3.97;1.13;;;;;;;8.48;60.48;99906.34;10531226;28;20183;-81
2022/11/07 06:16:02;;;;;;;5.53;1.20;;;;;;;8.21;61.30;99913.94;10545231;28;20232;-82
2022/11/07 06:21:24;;;;;;;4.50;0.97;;;;;;;8.37;60.88;99919.88;10530104;28;20222;-81
2022/11/07 06:26:46;;;;;;;3.87;1.17;;;;;;;8.16;61.26;99916.91;10545481;28;20232;-80
2022/11/07 06:32:08;;;;;;;3.87;1.10;;;;;;;8.07;61.60;99922.53;10545044;28;20268;-81
2022/11/07 06:37:30;;;;;;;3.67;1.00;;;;;;;8.12;61.43;99924.31;10514611;28;20248;-80
2022/11/07 06:42:53;;;;;;;2.97;0.90;;;;;;;7.91;62.80;99923.31;10528721;28;20249;-81
2022/11/07 06:48:15;;;;;;;5.27;1.60;;;;;;;8.50;61.14;99932.09;10539098;28;20622;-81
2022/11/07 06:53:37;;;;;;;5.30;0.87;;;;;;;8.33;61.18;99930.97;10516010;28;20195;-80
2022/11/07 06:58:59;;;;;;;4.60;1.67;;;;;;;8.53;60.45;99929.44;10533332;28;20198;-81
2022/11/07 07:04:21;;;;;;;6.77;1.30;;;;;;;8.30;60.78;99947.63;10519700;28;20682;-80
2022/11/07 07:09:44;;;;;;;6.07;1.17;;;;;;;8.62;60.87;99935.91;10510948;28;20225;-83
2022/11/07 07:15:07;;;;;;;6.10;1.23;;;;;;;8.61;60.74;99942.69;10489372;28;20260;-82
2022/11/07 07:20:29;;;;;;;7.27;1.57;;;;;;;8.78;60.68;99944.66;10531429;28;20242;-82
2022/11/07 07:25:51;;;;;;;5.87;1.40;;;;;;;8.74;60.49;99949.31;10514274;28;20271;-85
2022/11/07 07:31:13;;;;;;;5.47;1.00;;;;;;;9.06;59.54;99951.53;10533165;28;20244;-80
2022/11/07 07:36:35;;;;;;;4.13;1.10;;;;;;;8.58;60.48;99953.75;10527630;28;20279;-84
2022/11/07 07:41:58;;;;;;;4.53;1.10;;;;;;;9.09;59.48;99956.50;10533114;28;20238;-81
2022/11/07 07:47:20;;;;;;;3.43;1.07;;;;;;;8.90;59.33;99964.47;10539070;28;20603;-82
2022/11/07 07:52:42;;;;;;;4.73;1.47;;;;;;;9.00;59.21;99972.56;10527284;28;20199;-84
2022/11/07 07:58:04;;;;;;;4.40;1.37;;;;;;;9.35;57.93;99958.41;10534109;28;20198;-83
2022/11/07 08:03:26;;;;;;;5.27;1.20;;;;;;;9.37;58.20;99968.16;10508955;28;20245;-81
2022/11/07 08:08:49;;;;;;;6.90;1.00;;;;;;;8.99;58.57;99973.72;10532276;28;20226;-81
2022/11/07 08:14:11;;;;;;;4.87;0.83;;;;;;;9.14;58.08;99975.97;10541323;28;20198;-81
2022/11/07 08:19:33;;;;;;;6.23;1.57;;;;;;;9.36;57.74;99983.38;10539520;28;20233;-84
2022/11/07 08:24:55;;;;;;;4.30;1.00;;;;;;;9.25;58.54;99986.88;10536114;28;20299;-83
2022/11/07 08:30:17;;;;;;;4.53;0.90;;;;;;;9.44;58.22;99992.94;10514551;28;20268;-85
2022/11/07 08:35:39;;;;;;;5.23;1.10;;;;;;;10.04;56.71;99992.69;10518398;28;20639;-82
2022/11/07 08:41:02;;;;;;;8.20;1.27;;;;;;;10.25;56.30;100009.63;10525093;28;20239;-83
2022/11/07 08:46:25;;;;;;;6.60;0.93;;;;;;;9.95;57.10;99991.91;10519654;28;20242;-82
2022/11/07 08:51:47;;;;;;;6.80;1.07;;;;;;;10.03;57.43;99998.66;10520437;28;20602;-83
2022/11/07 08:57:09;;;;;;;7.13;1.30;;;;;;;10.13;57.11;100009.53;10521469;28;20666;-84
2022/11/07 09:02:32;;;;;;;8.50;1.33;;;;;;;10.34;56.50;100001.91;10518491;28;20622;-81
2022/11/07 09:07:55;;;;;;;5.17;1.07;;;;;;;9.92;58.24;100000.19;10519626;28;20245;-82
2022/11/07 09:13:19;;;;;;;6.20;1.42;;;;;;;10.17;57.58;100002.06;10519568;28;20279;-81
2022/11/07 09:18:43;;;;;;;7.13;1.23;;;;;;;10.09;58.81;100000.94;10507367;28;20218;-82
2022/11/07 09:24:06;;;;;;;8.60;1.33;;;;;;;10.27;58.10;100001.66;10524544;28;20315;-81
2022/11/07 09:29:28;;;;;;;5.97;1.30;;;;;;;10.19;58.04;100016.59;10520356;28;20627;-82
2022/11/07 09:34:51;;;;;;;8.47;1.10;;;;;;;10.32;58.30;100026.78;10528094;28;20247;-86
2022/11/07 09:40:23;;;;;;;6.60;1.10;;;;;;;10.70;57.91;100031.50;10528160;28;20191;-81
2022/11/07 09:46:14;;;;;;;6.87;1.30;;;;;;;10.70;56.87;100039.97;10520259;28;20194;-81
2022/11/07 09:51:38;;;;;;;4.57;0.93;;;;;;;10.47;58.85;100045.91;10530005;28;20247;-85
2022/11/07 09:57:02;;;;;;;7.90;1.10;;;;;;;10.52;57.49;100054.19;10515260;28;20226;-84
2022/11/07 10:02:26;;;;;;;4.47;1.40;;;;;;;10.65;58.07;100065.56;10524081;28;20234;-86
2022/11/07 10:08:09;;;;;;;5.57;1.23;;;;;;;11.28;56.24;100065.16;10524581;28;20222;-84
2022/11/07 10:13:40;;;;;;;4.93;1.70;;;;;;;10.83;57.06;100061.41;10527015;28;20186;-81
2022/11/07 10:19:12;;;;;;;5.03;1.27;;;;;;;10.30;59.59;100068.59;10521104;28;20906;-81
2022/11/07 10:25:02;;;;;;;6.78;1.35;;;;;;;9.63;64.27;100088.22;10505957;28;20256;-82
2022/11/07 10:30:24;;;;;;;2.38;0.75;;;;;;;10.10;67.30;100083.41;10550391;28;20665;-82
2022/11/07 10:35:54;;;;;;;4.23;0.93;;;;;;;10.28;65.70;100093.44;10507204;28;20230;-82
2022/11/07 10:41:21;;;;;;;4.33;1.27;;;;;;;9.70;68.24;100097.81;10523069;28;20271;-81
2022/11/07 10:46:45;;;;;;;6.07;1.37;;;;;;;9.59;71.36;100104.94;10527310;28;20250;-82
2022/11/07 10:52:16;;;;;;;6.90;1.30;;;;;;;9.27;73.86;100109.09;10534840;28;20239;-82
2022/11/07 10:57:38;;;;;;;2.30;0.93;;;;;;;9.80;72.40;100110.69;10520917;28;20187;-83
2022/11/07 11:03:00;;;;;;;3.47;1.27;;;;;;;9.71;73.49;100107.91;10545892;28;20222;-84
2022/11/07 11:08:30;;;;;;;4.40;1.23;;;;;;;9.11;75.81;100094.75;10526709;28;20202;-82
2022/11/07 11:14:13;;;;;;;7.50;1.43;;;;;;;8.93;76.77;100086.66;10526687;28;20560;-83
2022/11/07 11:19:40;;;;;;;4.93;1.23;;;;;;;9.71;74.15;100076.94;10523137;28;20595;-82
2022/11/07 11:25:18;;;;;;;3.73;1.03;;;;;;;9.57;74.81;100070.66;10513157;28;20246;-81
2022/11/07 11:30:40;;;;;;;5.53;1.93;;;;;;;9.77;73.79;100066.34;10516487;28;20202;-82
2022/11/07 11:36:10;;;;;;;3.47;1.40;;;;;;;9.64;73.02;100071.03;10528748;28;20586;-81
2022/11/07 11:41:52;;;;;;;5.20;1.60;;;;;;;10.03;73.03;100066.25;10516621;28;20279;-82
2022/11/07 11:47:27;;;;;;;4.82;1.42;;;;;;;9.67;73.83;100078.78;10531083;28;20198;-82
2022/11/07 11:52:49;;;;;;;5.72;1.80;;;;;;;10.27;70.61;100058.00;10507151;28;20198;-85
2022/11/07 11:58:22;;;;;;;4.78;1.40;;;;;;;10.91;68.95;100054.91;10513882;28;20228;-83
2022/11/07 12:04:05;;;;;;;4.80;1.35;;;;;;;10.93;68.97;100061.03;10511685;28;20249;-83
2022/11/07 12:09:37;;;;;;;8.45;1.33;;;;;;;10.80;68.49;100071.41;10507338;28;20210;-81
2022/11/07 12:15:20;;;;;;;7.27;1.80;;;;;;;11.72;65.06;100068.41;10512429;28;20267;-81
2022/11/07 12:20:59;;;;;;;7.50;2.33;;;;;;;10.87;67.73;100070.84;10518488;28;20227;-82
2022/11/07 12:26:42;;;;;;;9.65;1.63;;;;;;;10.55;68.38;100063.94;10520196;28;20223;-81
2022/11/07 12:32:40;;;;;;;5.97;1.50;;;;;;;10.63;67.72;100067.88;10505296;28;20214;-81
2022/11/07 12:38:52;;;;;;;9.10;1.60;;;;;;;10.69;67.23;100061.72;10506473;28;20264;-81
2022/11/07 12:44:38;;;;;;;8.07;1.70;;;;;;;10.70;67.51;100060.53;10410146;28;20691;-81
2022/11/07 12:50:05;;;;;;;4.83;1.30;;;;;;;10.90;66.32;100056.06;10499525;28;20202;-82
2022/11/07 12:55:52;;;;;;;6.38;1.05;;;;;;;11.54;63.79;100053.63;10525737;28;20304;-83
2022/11/07 13:01:24;;;;;;;6.15;1.77;;;;;;;11.68;62.66;100055.31;10532436;28;20227;-82
2022/11/07 13:06:56;;;;;;;8.18;1.85;;;;;;;11.42;62.93;100059.22;10533486;28;20191;-91
2022/11/07 13:12:32;;;;;;;4.77;1.33;;;;;;;11.57;62.82;100063.41;10521860;28;20469;-81
2022/11/07 13:17:54;;;;;;;8.35;1.52;;;;;;;11.72;60.63;100062.75;10543266;28;20194;-84
2022/11/07 13:23:25;;;;;;;5.30;1.63;;;;;;;11.89;59.75;100059.69;10538928;28;20232;-84
2022/11/07 13:29:00;;;;;;;5.68;1.83;;;;;;;12.35;58.57;100054.78;10545900;28;20214;-82
2022/11/07 13:34:24;;;;;;;3.13;1.25;;;;;;;12.45;57.52;100048.66;10545286;28;20215;-82
2022/11/07 13:39:49;;;;;;;4.27;1.30;;;;;;;11.83;58.06;100057.47;10523494;28;20211;-81
2022/11/07 13:45:25;;;;;;;4.97;1.38;;;;;;;11.72;58.24;100056.28;10529758;28;20206;-82
2022/11/07 13:51:11;;;;;;;3.95;1.08;;;;;;;11.66;58.56;100054.84;10526196;28;20202;-80
2022/11/07 13:56:52;;;;;;;5.53;1.27;;;;;;;11.43;58.24;100066.53;10530537;28;20244;-82
2022/11/07 14:02:33;;;;;;;4.97;1.33;;;;;;;11.69;57.70;100063.44;10502753;28;20611;-83
2022/11/07 14:08:00;;;;;;;4.63;1.05;;;;;;;11.79;57.44;100060.16;10537717;28;20198;-81
2022/11/07 14:13:27;;;;;;;9.33;1.33;;;;;;;12.56;54.33;100047.00;10538930;28;20194;-82
2022/11/07 14:19:02;;;;;;;5.15;1.08;;;;;;;11.97;55.70;100064.44;10539113;28;20322;-84
2022/11/07 14:24:31;;;;;;;6.95;1.23;;;;;;;12.16;55.55;100066.66;10529815;28;20307;-82
2022/11/07 14:29:55;;;;;;;6.73;0.90;;;;;;;12.33;54.79;100055.13;10525623;28;20219;-83
2022/11/07 14:35:21;;;;;;;4.17;0.87;;;;;;;11.59;57.18;100061.06;10538116;28;20222;-82
2022/11/07 14:40:44;;;;;;;6.03;1.10;;;;;;;12.13;55.44;100058.88;10502596;28;20291;-84
2022/11/07 14:46:11;;;;;;;8.53;1.37;;;;;;;11.80;55.89;100061.81;10517678;28;20230;-83
2022/11/07 14:51:33;;;;;;;7.15;1.70;;;;;;;11.94;55.84;100056.66;10525933;28;20199;-85
2022/11/07 14:56:55;;;;;;;8.07;1.67;;;;;;;11.70;56.26;100064.25;10532998;28;20591;-82
2022/11/07 15:02:26;;;;;;;5.28;1.30;;;;;;;11.63;55.91;100070.47;10527380;28;20267;-83
2022/11/07 15:07:48;;;;;;;4.65;1.00;;;;;;;12.20;54.53;100053.47;10527174;28;20198;-82
2022/11/07 15:13:23;;;;;;;5.20;1.08;;;;;;;12.21;54.50;100049.47;10525989;28;20248;-83
2022/11/07 15:18:47;;;;;;;3.85;1.02;;;;;;;11.71;55.88;100052.63;10526750;28;20251;-81
2022/11/07 15:24:32;;;;;;;5.22;1.45;;;;;;;12.16;54.81;100051.69;10530173;28;20284;-83
2022/11/07 15:29:56;;;;;;;7.65;1.75;;;;;;;11.82;56.01;100056.63;10532586;28;20251;-81
2022/11/07 15:35:19;;;;;;;4.40;1.13;;;;;;;11.53;56.42;100053.97;10518792;28;20218;-80
2022/11/07 15:40:42;;;;;;;4.80;1.80;;;;;;;11.13;57.50;100057.34;10505556;28;20559;-83
2022/11/07 15:46:29;;;;;;;5.93;1.50;;;;;;;11.64;55.81;100049.53;10528939;28;20296;-81
2022/11/07 15:51:51;;;;;;;5.07;0.90;;;;;;;11.71;55.79;100054.63;10508929;28;20218;-82
2022/11/07 15:57:13;;;;;;;3.75;1.20;;;;;;;11.86;55.47;100063.22;10503410;28;20652;-85
2022/11/07 16:02:36;;;;;;;5.10;1.08;;;;;;;11.90;55.06;100069.81;10500892;28;21675;-81
2022/11/07 16:07:58;;;;;;;8.45;1.67;;;;;;;11.59;56.34;100078.84;10502426;28;20582;-83
2022/11/07 16:13:20;;;;;;;4.53;1.17;;;;;;;11.88;55.62;100075.00;10510602;28;20845;-83
2022/11/07 16:18:44;;;;;;;7.33;1.40;;;;;;;11.80;56.02;100078.75;10514600;28;20545;-81
2022/11/07 16:24:06;;;;;;;5.20;1.60;;;;;;;11.57;56.07;100084.00;10515843;28;20283;-81
2022/11/07 16:29:28;;;;;;;3.27;0.70;;;;;;;11.65;55.95;100087.06;10513862;28;20245;-80
2022/11/07 16:34:50;;;;;;;3.67;0.83;;;;;;;11.64;56.37;100086.25;10516959;28;20280;-81
2022/11/07 16:40:17;;;;;;;3.03;0.80;;;;;;;11.84;55.48;100091.00;10542592;28;20219;-80
2022/11/07 16:45:49;;;;;;;1.75;1.02;;;;;;;11.50;56.68;100088.53;10512153;28;20238;-82
2022/11/07 16:51:14;;;;;;;3.00;0.90;;;;;;;11.39;57.00;100087.31;10529136;28;20222;-80
2022/11/07 16:56:36;;;;;;;2.70;1.07;;;;;;;11.27;57.58;100097.38;10525383;28;20211;-80
2022/11/07 17:01:59;;;;;;;5.13;1.57;;;;;;;12.22;54.88;100101.16;10525135;28;20268;-80
2022/11/07 17:07:22;;;;;;;3.57;1.07;;;;;;;11.30;57.39;100104.31;10517305;28;20269;-81
2022/11/07 17:12:44;;;;;;;2.30;0.73;;;;;;;11.18;57.83;100101.44;10504758;28;20222;-81
2022/11/07 17:18:18;;;;;;;4.13;1.10;;;;;;;11.31;58.17;100099.50;10489290;28;20211;-80
2022/11/07 17:23:40;;;;;;;2.33;1.58;;;;;;;11.47;58.08;100094.88;10505482;28;20218;-81
2022/11/07 17:29:04;;;;;;;3.00;0.67;;;;;;;11.15;59.36;100105.78;10498393;28;20309;-80
2022/11/07 17:34:26;;;;;;;2.90;0.95;;;;;;;11.09;59.32;100104.31;10519386;28;20564;-80
2022/11/07 17:39:48;;;;;;;4.23;0.90;;;;;;;11.66;57.60;100103.66;10523397;28;20218;-84
2022/11/07 17:45:10;;;;;;;2.53;0.73;;;;;;;11.36;58.35;100099.28;10527291;28;20649;-82
2022/11/07 17:50:32;;;;;;;1.95;0.75;;;;;;;11.08;59.09;100099.88;10515742;28;20222;-82
2022/11/07 17:55:55;;;;;;;2.45;0.75;;;;;;;11.75;57.22;100112.84;10512037;28;20299;-81
2022/11/07 18:01:22;;;;;;;2.47;1.00;;;;;;;11.83;56.84;100117.59;10538748;28;20255;-81
2022/11/07 18:06:44;;;;;;;5.37;0.90;;;;;;;11.52;57.64;100112.44;10512422;28;20246;-80
2022/11/07 18:12:07;;;;;;;2.95;0.60;;;;;;;11.49;58.33;100115.94;10535670;28;20226;-81
2022/11/07 18:17:30;;;;;;;1.63;0.70;;;;;;;11.74;57.10;100111.19;10511746;28;20267;-80
2022/11/07 18:22:52;;;;;;;2.33;1.00;;;;;;;11.10;59.05;100103.16;10531686;28;20210;-80
2022/11/07 18:28:14;;;;;;;2.57;0.93;;;;;;;11.08;59.33;100111.16;10529948;28;20202;-84
2022/11/07 18:33:36;;;;;;;1.60;0.50;;;;;;;11.25;58.86;100115.81;10522763;28;20277;-88
2022/11/07 18:39:03;;;;;;;2.25;1.13;;;;;;;11.18;58.65;100113.56;10528963;28;20599;-80
2022/11/07 18:44:25;;;;;;;3.40;0.90;;;;;;;10.96;59.67;100101.78;10514799;28;20233;-80
2022/11/07 18:49:47;;;;;;;3.05;1.20;;;;;;;11.33;58.69;100125.38;10533301;28;20194;-79
2022/11/07 18:55:10;;;;;;;3.17;1.00;;;;;;;11.38;58.11;100111.03;10520080;28;20210;-80
2022/11/07 19:00:32;;;;;;;2.67;0.77;;;;;;;10.69;60.44;100120.91;10528502;28;20195;-81
2022/11/07 19:05:59;;;;;;;6.60;5.23;;;;;;;11.09;58.97;100118.44;10526247;28;20254;-79
2022/11/07 19:11:25;;;;;;;5.82;2.03;;;;;;;11.14;59.35;100111.75;10496275;28;20279;-84
2022/11/07 19:16:47;;;;;;;2.88;1.17;;;;;;;10.97;59.79;100109.91;10498474;28;20218;-79
2022/11/07 19:22:11;;;;;;;4.43;0.90;;;;;;;11.10;59.85;100108.81;10508303;28;20215;-82
2022/11/07 19:27:33;;;;;;;2.65;0.90;;;;;;;11.47;58.36;100100.53;10504668;28;20243;-79
2022/11/07 19:32:55;;;;;;;2.27;0.70;;;;;;;11.15;59.69;100107.78;10505965;28;20254;-79
2022/11/07 19:38:17;;;;;;;3.27;0.90;;;;;;;11.34;59.13;100107.28;10503962;28;20668;-79
2022/11/07 19:43:41;;;;;;;5.93;1.02;;;;;;;10.67;61.42;100108.31;10507108;28;20238;-79
2022/11/07 19:49:03;;;;;;;5.00;1.50;;;;;;;10.87;60.60;100116.78;10506117;28;20287;-79
2022/11/07 19:54:25;;;;;;;2.00;0.80;;;;;;;10.86;61.25;100103.03;10508791;28;20229;-79
2022/11/07 19:59:47;;;;;;;4.57;1.20;;;;;;;11.11;60.37;100113.28;10509243;28;20295;-79
2022/11/07 20:05:09;;;;;;;6.03;1.53;;;;;;;10.75;61.02;100113.91;10506174;28;20331;-79
2022/11/07 20:10:32;;;;;;;6.65;2.47;;;;;;;11.05;61.24;100117.50;10511134;28;20230;-80
2022/11/07 20:15:57;;;;;;;3.72;1.45;;;;;;;11.16;59.86;100118.72;10517046;28;20256;-79
2022/11/07 20:21:21;;;;;;;4.88;1.48;;;;;;;11.23;60.02;100116.16;10513881;28;20226;-80
2022/11/07 20:26:44;;;;;;;4.30;1.60;;;;;;;11.24;60.02;100116.97;10506469;28;20324;-80
2022/11/07 20:32:06;;;;;;;5.05;1.05;;;;;;;10.69;61.77;100125.72;10514897;28;20254;-84
2022/11/07 20:37:28;;;;;;;6.43;0.97;;;;;;;11.07;60.64;100120.78;10519805;28;20272;-79
2022/11/07 20:42:51;;;;;;;3.77;1.13;;;;;;;11.54;59.17;100112.09;10507214;28;20227;-79
2022/11/07 20:48:13;;;;;;;5.03;1.90;;;;;;;11.56;58.69;100115.41;10524078;28;20218;-78
2022/11/07 20:53:37;;;;;;;9.80;2.67;;;;;;;11.08;59.98;100116.81;10505861;28;20340;-79
2022/11/07 20:58:59;;;;;;;5.72;1.70;;;;;;;11.16;60.20;100115.06;10508323;28;20222;-79
2022/11/07 21:04:21;;;;;;;8.35;2.03;;;;;;;10.72;61.38;100120.22;10509058;28;20300;-79
2022/11/07 21:09:44;;;;;;;5.40;1.73;;;;;;;11.01;60.51;100122.16;10505901;28;20286;-79
2022/11/07 21:15:06;;;;;;;6.25;1.15;;;;;;;10.87;60.61;100124.41;10513560;28;20252;-79
2022/11/07 21:20:28;;;;;;;5.67;2.47;;;;;;;10.95;60.27;100129.19;10520102;28;20531;-79
2022/11/07 21:25:51;;;;;;;7.17;2.47;;;;;;;11.02;60.04;100128.63;10517555;28;20309;-79
2022/11/07 21:31:16;;;;;;;9.63;2.87;;;;;;;10.55;62.13;100126.78;10522142;28;20616;-79
2022/11/07 21:36:39;;;;;;;6.65;1.88;;;;;;;10.82;60.44;100124.66;10519227;28;20827;-79
2022/11/07 21:42:03;;;;;;;5.50;1.33;;;;;;;11.23;59.28;100118.16;10513737;28;20280;-79
2022/11/07 21:47:25;;;;;;;6.73;1.43;;;;;;;10.66;61.50;100123.59;10505237;28;20681;-79
2022/11/07 21:52:47;;;;;;;4.90;1.63;;;;;;;11.00;59.77;100128.97;10515623;28;20275;-79
2022/11/07 21:58:09;;;;;;;10.82;2.83;;;;;;;11.05;60.14;100128.78;10521137;28;20654;-80
2022/11/07 22:03:32;;;;;;;6.88;1.90;;;;;;;10.97;59.83;100135.28;10514845;28;20218;-80
2022/11/07 22:08:54;;;;;;;6.50;2.05;;;;;;;10.63;61.25;100121.44;10521001;28;20245;-79
2022/11/07 22:14:19;;;;;;;7.77;1.93;;;;;;;10.73;60.90;100110.59;10521817;28;20245;-80
2022/11/07 22:19:41;;;;;;;7.97;1.70;;;;;;;10.62;61.58;100105.69;10515210;28;20268;-79
2022/11/07 22:25:03;;;;;;;6.50;2.13;;;;;;;10.39;62.42;100108.78;10521058;28;20559;-80
2022/11/07 22:30:25;;;;;;;5.57;1.57;;;;;;;10.30;62.44;100108.03;10522838;28;20545;-80
2022/11/07 22:35:48;;;;;;;7.27;1.73;;;;;;;10.41;62.96;100103.66;10512919;28;20736;-83
2022/11/07 22:41:13;;;;;;;7.00;1.70;;;;;;;10.31;62.65;100108.81;10504669;28;20274;-88
2022/11/07 22:46:35;;;;;;;9.80;2.22;;;;;;;10.24;63.37;100100.91;10500255;28;20700;-80
2022/11/07 22:51:57;;;;;;;5.60;1.57;;;;;;;10.14;63.85;100095.66;10508835;28;20653;-79
2022/11/07 22:57:20;;;;;;;8.25;2.00;;;;;;;10.10;63.08;100089.06;10506875;28;20535;-83
2022/11/07 23:02:42;;;;;;;7.00;1.67;;;;;;;9.77;65.45;100089.69;10517124;28;20266;-82
2022/11/07 23:08:04;;;;;;;10.43;2.73;;;;;;;10.01;64.74;100088.28;10524422;28;20215;-81
2022/11/07 23:13:27;;;;;;;9.10;1.48;;;;;;;10.39;63.36;100077.81;10517321;28;20926;-80
2022/11/07 23:18:49;;;;;;;5.13;1.45;;;;;;;10.04;64.11;100081.97;10512884;28;20198;-83
2022/11/07 23:24:12;;;;;;;6.03;1.50;;;;;;;9.98;64.04;100083.31;10514523;28;20207;-81
2022/11/07 23:29:34;;;;;;;7.63;1.47;;;;;;;10.41;62.98;100071.81;10499404;28;20576;-81
2022/11/07 23:34:56;;;;;;;3.73;1.30;;;;;;;9.90;64.60;100072.94;10510187;28;20223;-81
2022/11/07 23:40:18;;;;;;;3.95;1.08;;;;;;;10.60;62.25;100069.41;10512141;28;20275;-81
2022/11/07 23:51:21;;;;;;;10.40;3.53;;;;;;;10.40;62.72;100064.53;10503194;28;20248;-81
2022/11/07 23:56:43;;;;;;;6.47;1.87;;;;;;;10.23;63.07;100062.63;10521154;28;20618;-81
